Brenes, Spain
Current Conditions -  °F | °C
As of 3:00 PM on Thursday 30 Oct 2014 (Local Time) from LEZL Reporting Station
Clear Clear  
Wind Chill: 86°   Ceiling: Unl
Heat Index: 86°   Visibility: 6mi
Dew Point: 45°   Wind: 9mph
Humidity: 23%   Direction: 70°ENE
Pressure: 30.03"   Gusts: NA
Location:  37.55°N, 5.87°W
Report Text: LEZL 301400Z 07008KT 040V100 CAVOK 30/07 Q1017 NOSIG
Loading
Personal Weather Stations






























Interactive Weather Map New forecast layout! Learn more

10-Day Weather Forecast

Advertisements
Track Severe Weather on mobile